Time;durP1;ratioP1;P1;durP2;ratioP2;P2;SDS_P1;SDS_P2;PMS_P1;PMS_P2;Temp;Humidity;BMP_temperature;BMP_pressure;BME280_temperature;BME280_humidity;BME280_pressure;Samples;Min_cycle;Max_cycle;Signal;HPM_P1;HPM_P2
2023/08/09 00:00:57;;;;;;;1.90;1.70;;;;;;;22.82;44.21;99791.53;5092726;28;20028;-43
2023/08/09 00:03:22;;;;;;;3.88;1.80;;;;;;;22.81;44.39;99789.91;5092874;28;20115;-43
2023/08/09 00:05:48;;;;;;;1.92;1.75;;;;;;;22.61;44.98;99790.06;5092861;28;20023;-43
2023/08/09 00:08:13;;;;;;;2.58;1.80;;;;;;;22.22;45.80;99788.13;5092638;28;20028;-43
2023/08/09 00:10:39;;;;;;;2.75;2.20;;;;;;;22.21;45.83;99792.72;5091472;28;20031;-47
2023/08/09 00:13:04;;;;;;;2.70;2.00;;;;;;;22.21;46.28;99781.88;5092537;28;20024;-43
2023/08/09 00:15:30;;;;;;;3.42;1.98;;;;;;;22.13;46.61;99784.38;5092524;28;20035;-44
2023/08/09 00:17:55;;;;;;;2.08;1.88;;;;;;;22.35;45.62;99792.13;5092190;28;20453;-45
2023/08/09 00:20:22;;;;;;;2.20;1.90;;;;;;;22.23;45.90;99795.97;5092081;28;20032;-44
2023/08/09 00:22:48;;;;;;;2.40;1.85;;;;;;;21.98;46.39;99788.78;5092359;28;20028;-44
2023/08/09 00:25:14;;;;;;;2.63;1.92;;;;;;;22.00;46.52;99783.88;5092131;28;20158;-44
2023/08/09 00:27:40;;;;;;;3.08;1.92;;;;;;;22.03;46.82;99786.03;5092517;28;20052;-42
2023/08/09 00:30:13;;;;;;;2.20;2.00;;;;;;;21.88;47.09;99772.56;5092391;28;20043;-42
2023/08/09 00:32:40;;;;;;;3.88;2.22;;;;;;;22.06;46.72;99787.38;5092090;28;20027;-44
2023/08/09 00:35:06;;;;;;;2.40;2.00;;;;;;;22.10;47.05;99785.72;5091525;28;20031;-43
2023/08/09 00:37:32;;;;;;;2.88;2.10;;;;;;;22.12;46.37;99777.31;5091511;28;20052;-44
2023/08/09 00:39:59;;;;;;;4.28;2.00;;;;;;;22.08;46.88;99785.19;5091940;28;20479;-42
2023/08/09 00:42:24;;;;;;;2.13;1.92;;;;;;;22.03;46.93;99782.53;5091808;28;20471;-45
2023/08/09 00:44:50;;;;;;;3.35;1.90;;;;;;;22.03;46.82;99785.25;5092001;28;20063;-43
2023/08/09 00:47:16;;;;;;;3.20;2.00;;;;;;;22.12;47.71;99785.47;5091888;28;20135;-43
2023/08/09 00:49:42;;;;;;;2.20;2.00;;;;;;;21.99;47.84;99776.03;5092022;28;20103;-45
2023/08/09 00:52:08;;;;;;;3.65;2.10;;;;;;;22.01;47.65;99782.00;5091938;28;20465;-44
2023/08/09 00:54:33;;;;;;;2.40;1.95;;;;;;;21.86;47.63;99774.75;5091934;28;20028;-44
2023/08/09 00:56:59;;;;;;;3.25;2.15;;;;;;;21.84;47.44;99771.50;5091736;28;20046;-42
2023/08/09 00:59:25;;;;;;;2.75;2.10;;;;;;;21.77;48.23;99771.00;5091677;28;20035;-43
2023/08/09 01:01:50;;;;;;;3.90;2.05;;;;;;;21.63;48.57;99768.88;5091444;28;20032;-42
2023/08/09 01:04:17;;;;;;;2.20;2.00;;;;;;;21.79;48.52;99766.91;5091846;28;20016;-41
2023/08/09 01:07:08;;;;;;;2.20;2.00;;;;;;;21.57;47.66;99729.38;5091440;28;20024;-44
2023/08/09 01:09:53;;;;;;;3.30;2.03;;;;;;;21.89;47.31;99765.25;5077514;28;20070;-41
2023/08/09 01:12:29;;;;;;;3.53;2.30;;;;;;;21.76;49.49;99770.19;5091520;28;20024;-44
2023/08/09 01:14:59;;;;;;;3.53;2.10;;;;;;;21.77;47.75;99760.16;5091601;28;20103;-43
2023/08/09 01:17:28;;;;;;;2.20;2.00;;;;;;;21.65;48.53;99755.88;5091232;28;20356;-42
2023/08/09 01:19:56;;;;;;;2.42;2.13;;;;;;;21.57;48.37;99756.44;5091343;28;20103;-44
2023/08/09 01:22:35;;;;;;;4.07;2.13;;;;;;;21.32;49.71;99762.69;5090879;28;20116;-42
2023/08/09 01:25:06;;;;;;;2.75;2.10;;;;;;;21.52;49.28;99767.28;5091221;28;20114;-46
2023/08/09 01:27:33;;;;;;;2.63;2.20;;;;;;;20.93;50.55;99776.81;5091009;28;20031;-42
2023/08/09 01:29:59;;;;;;;2.15;1.92;;;;;;;20.78;50.88;99772.22;5090955;28;20024;-42
2023/08/09 01:32:26;;;;;;;2.15;1.95;;;;;;;20.73;50.63;99766.00;5091420;28;20055;-43
2023/08/09 01:34:52;;;;;;;2.83;2.08;;;;;;;20.76;50.71;99779.81;5091026;28;20036;-43
2023/08/09 01:37:17;;;;;;;3.72;2.40;;;;;;;20.82;50.72;99769.78;5090788;28;20151;-44
2023/08/09 01:39:44;;;;;;;2.30;2.10;;;;;;;20.97;50.88;99767.09;5090838;28;20139;-42
2023/08/09 01:42:11;;;;;;;2.28;2.08;;;;;;;20.84;50.78;99771.13;5090750;28;20066;-42
2023/08/09 01:44:37;;;;;;;2.83;2.10;;;;;;;20.90;50.76;99758.44;5090840;28;20120;-44
2023/08/09 01:47:03;;;;;;;2.83;2.20;;;;;;;20.87;50.69;99770.59;5090656;28;20052;-42
2023/08/09 01:49:29;;;;;;;3.22;2.22;;;;;;;21.01;50.01;99773.56;5090245;28;20391;-42
2023/08/09 01:51:54;;;;;;;2.20;2.00;;;;;;;21.12;49.53;99766.25;5090284;28;20028;-41
2023/08/09 01:54:20;;;;;;;3.45;2.25;;;;;;;21.12;49.68;99771.66;5090650;28;20032;-44
2023/08/09 01:56:45;;;;;;;2.40;2.20;;;;;;;21.02;50.23;99771.69;5090258;28;20538;-42
2023/08/09 01:59:11;;;;;;;2.63;2.25;;;;;;;20.91;50.10;99773.59;5090442;28;20027;-40
2023/08/09 02:01:36;;;;;;;2.83;2.20;;;;;;;20.82;50.09;99775.19;5090532;28;20048;-42
2023/08/09 02:04:07;;;;;;;2.65;2.20;;;;;;;20.90;50.39;99774.66;5090302;28;20024;-42
2023/08/09 02:06:32;;;;;;;3.35;2.00;;;;;;;20.88;50.70;99777.63;5090434;28;20020;-41
2023/08/09 02:08:59;;;;;;;2.47;2.20;;;;;;;20.83;50.44;99763.31;5090067;28;20028;-44
2023/08/09 02:11:24;;;;;;;2.20;1.90;;;;;;;20.93;50.36;99779.53;5090320;28;20028;-42
2023/08/09 02:13:50;;;;;;;2.17;1.98;;;;;;;20.92;50.10;99783.31;5090044;28;20034;-42
2023/08/09 02:16:15;;;;;;;2.22;2.03;;;;;;;20.93;50.50;99779.53;5090008;28;20084;-43
2023/08/09 02:18:41;;;;;;;2.40;2.20;;;;;;;20.97;50.34;99788.72;5090059;28;20020;-42
2023/08/09 02:21:06;;;;;;;3.50;2.10;;;;;;;20.98;50.53;99793.06;5089951;28;20110;-42
2023/08/09 02:23:32;;;;;;;2.47;2.25;;;;;;;20.95;50.04;99787.38;5090042;28;20016;-42
2023/08/09 02:25:58;;;;;;;2.50;2.28;;;;;;;20.84;50.59;99798.19;5090225;28;20028;-43
2023/08/09 02:28:23;;;;;;;2.40;2.20;;;;;;;20.80;50.64;99801.72;5089996;28;20440;-43
2023/08/09 02:30:49;;;;;;;2.90;2.20;;;;;;;20.76;50.91;99801.44;5090366;28;20024;-43
2023/08/09 02:33:15;;;;;;;3.10;2.08;;;;;;;20.74;50.85;99797.38;5089687;28;20024;-43
2023/08/09 02:35:56;;;;;;;2.65;2.17;;;;;;;20.74;50.88;99806.31;5089883;28;20028;-44
2023/08/09 02:38:23;;;;;;;2.90;2.10;;;;;;;20.77;51.34;99810.34;5085969;28;20151;-45
2023/08/09 02:40:50;;;;;;;2.90;2.30;;;;;;;20.55;51.72;99816.78;5089518;28;20337;-43
2023/08/09 02:43:20;;;;;;;3.25;2.22;;;;;;;20.45;51.50;99811.38;5089754;28;20050;-43
2023/08/09 02:45:45;;;;;;;2.85;2.30;;;;;;;20.51;51.60;99818.41;5089739;28;20468;-43
2023/08/09 02:48:11;;;;;;;6.07;2.83;;;;;;;20.42;52.15;99817.31;5089184;28;20032;-44
2023/08/09 02:50:37;;;;;;;4.53;2.60;;;;;;;20.39;52.09;99820.53;5090010;28;20024;-42
2023/08/09 02:53:03;;;;;;;4.18;2.35;;;;;;;20.42;51.98;99820.00;5089929;28;20016;-44
2023/08/09 02:55:30;;;;;;;2.30;2.10;;;;;;;20.41;52.03;99824.59;5089600;28;20028;-43
2023/08/09 02:57:55;;;;;;;3.75;2.33;;;;;;;20.29;52.78;99826.72;5089854;28;20016;-42
2023/08/09 03:00:21;;;;;;;4.45;2.30;;;;;;;20.36;52.55;99829.19;5089801;28;20309;-43
2023/08/09 03:02:46;;;;;;;3.58;2.47;;;;;;;20.74;51.40;99832.53;5089729;28;20430;-42
2023/08/09 03:05:11;;;;;;;2.90;2.45;;;;;;;20.80;51.22;99839.56;5090211;28;20101;-45
2023/08/09 03:07:37;;;;;;;4.93;2.45;;;;;;;20.99;50.64;99834.44;5090677;28;20020;-42
2023/08/09 03:10:03;;;;;;;4.40;2.50;;;;;;;21.10;50.33;99841.47;5090427;28;20471;-43
2023/08/09 03:12:30;;;;;;;3.83;2.30;;;;;;;21.17;49.98;99852.00;5090383;28;20035;-45
2023/08/09 03:14:55;;;;;;;4.07;2.60;;;;;;;21.29;49.77;99839.84;5090739;28;20568;-42
2023/08/09 03:17:21;;;;;;;3.28;2.50;;;;;;;21.19;49.87;99849.84;5073548;28;20100;-43
2023/08/09 03:19:47;;;;;;;4.15;2.83;;;;;;;21.16;50.13;99856.63;5070031;28;20063;-44
2023/08/09 03:22:12;;;;;;;4.00;2.90;;;;;;;20.87;50.60;99848.22;5070156;28;20107;-42
2023/08/09 03:24:38;;;;;;;2.83;2.50;;;;;;;20.98;50.46;99863.41;5069948;28;20127;-42
2023/08/09 03:27:04;;;;;;;2.70;2.38;;;;;;;20.81;50.58;99865.50;5070021;28;20028;-42
2023/08/09 03:29:29;;;;;;;2.65;2.10;;;;;;;20.18;51.96;99862.88;5069796;28;20361;-43
2023/08/09 03:31:55;;;;;;;2.75;2.30;;;;;;;19.98;53.27;99871.72;5069948;28;20024;-41
2023/08/09 03:34:20;;;;;;;2.50;2.30;;;;;;;19.91;53.39;99864.66;5070301;28;20102;-41
2023/08/09 03:36:45;;;;;;;2.55;2.35;;;;;;;20.25;52.28;99866.97;5076920;28;20016;-43
2023/08/09 03:39:11;;;;;;;4.93;4.15;;;;;;;20.18;52.62;99870.97;5090462;28;20468;-42
2023/08/09 03:41:37;;;;;;;6.18;3.63;;;;;;;20.06;52.71;99871.22;5090218;28;20028;-41
2023/08/09 03:44:02;;;;;;;14.07;8.02;;;;;;;20.00;54.70;99877.66;5091180;28;20024;-43
2023/08/09 03:46:28;;;;;;;7.72;5.57;;;;;;;19.96;54.61;99880.06;5093652;28;20225;-43
2023/08/09 03:48:54;;;;;;;9.93;6.78;;;;;;;20.23;52.97;99881.81;5093673;28;20024;-42
2023/08/09 03:51:19;;;;;;;3.75;3.00;;;;;;;20.27;53.15;99883.72;5093724;28;20482;-42
2023/08/09 03:53:45;;;;;;;3.50;2.72;;;;;;;20.43;52.65;99884.59;5093773;28;20016;-42
2023/08/09 03:56:11;;;;;;;3.42;2.53;;;;;;;20.40;52.44;99889.72;5093695;28;20026;-41
2023/08/09 03:58:37;;;;;;;5.20;2.65;;;;;;;20.34;52.55;99893.50;5093546;28;20008;-41
2023/08/09 04:01:02;;;;;;;4.28;2.53;;;;;;;20.00;54.13;99901.97;5093778;28;20136;-42
2023/08/09 04:03:28;;;;;;;16.73;11.65;;;;;;;20.06;53.97;99906.31;5093867;28;20417;-42
2023/08/09 04:05:54;;;;;;;8.43;6.13;;;;;;;20.82;52.41;99907.72;5093545;28;20414;-42
2023/08/09 04:08:21;;;;;;;13.90;7.43;;;;;;;21.18;51.93;99913.19;5093106;28;20289;-43
2023/08/09 04:10:47;;;;;;;6.22;3.83;;;;;;;21.66;50.61;99913.72;5092095;28;20062;-42
2023/08/09 04:13:13;;;;;;;3.42;2.60;;;;;;;22.21;48.84;99909.25;5092285;28;20047;-42
2023/08/09 04:15:38;;;;;;;2.95;2.60;;;;;;;22.70;47.91;99904.19;5091834;28;20098;-44
2023/08/09 04:18:04;;;;;;;4.72;2.90;;;;;;;23.00;46.93;99911.34;5092651;28;20110;-42
2023/08/09 04:20:31;;;;;;;4.05;2.60;;;;;;;23.41;46.73;99911.84;5092664;28;20449;-43
2023/08/09 04:22:57;;;;;;;3.70;2.55;;;;;;;23.41;46.14;99911.03;5093086;28;20096;-41
2023/08/09 04:25:22;;;;;;;3.35;2.38;;;;;;;23.91;45.08;99916.28;5093118;28;20455;-41
2023/08/09 04:27:48;;;;;;;5.60;3.05;;;;;;;24.36;43.65;99914.97;5092734;28;20043;-42
2023/08/09 04:30:14;;;;;;;6.00;3.25;;;;;;;24.83;42.48;99917.91;5092651;28;20470;-43
2023/08/09 04:32:39;;;;;;;3.40;3.10;;;;;;;25.01;42.48;99908.13;5092583;28;20031;-44
2023/08/09 04:35:07;;;;;;;4.57;2.70;;;;;;;25.44;41.50;99909.94;5092992;28;20027;-42
2023/08/09 04:37:32;;;;;;;9.82;3.20;;;;;;;25.57;40.46;99920.06;5092519;28;20059;-41
2023/08/09 04:39:58;;;;;;;4.93;3.00;;;;;;;26.04;39.41;99928.22;5092626;28;20032;-44
2023/08/09 04:42:23;;;;;;;5.68;2.95;;;;;;;26.29;39.25;99915.97;5092703;28;20452;-42
2023/08/09 04:44:48;;;;;;;4.07;2.55;;;;;;;25.50;39.44;99923.16;5092691;28;20435;-43
2023/08/09 04:47:14;;;;;;;4.40;2.47;;;;;;;25.95;39.37;99928.13;5094226;28;20074;-44
2023/08/09 04:49:40;;;;;;;5.97;2.70;;;;;;;25.66;39.54;99928.31;5095393;28;20054;-41
2023/08/09 04:52:06;;;;;;;4.25;2.60;;;;;;;25.99;38.72;99931.03;5109821;28;20024;-42
2023/08/09 04:54:31;;;;;;;3.83;2.50;;;;;;;25.61;39.49;99928.41;5113282;28;20376;-43
2023/08/09 04:56:57;;;;;;;3.38;2.40;;;;;;;25.70;39.67;99930.16;5112136;28;20024;-43
2023/08/09 04:59:23;;;;;;;2.97;2.67;;;;;;;26.32;38.87;99931.75;5112192;28;20133;-43
2023/08/09 05:01:49;;;;;;;3.85;2.40;;;;;;;26.43;38.36;99924.97;5112922;28;20504;-43
2023/08/09 05:04:14;;;;;;;11.48;6.15;;;;;;;27.21;38.38;99933.06;5090767;28;20059;-41
2023/08/09 05:06:40;;;;;;;5.50;2.65;;;;;;;27.66;36.39;99929.53;5091397;28;20427;-44
2023/08/09 05:09:06;;;;;;;5.20;3.67;;;;;;;27.66;36.21;99930.34;5087784;28;20057;-46
2023/08/09 05:11:31;;;;;;;10.02;6.55;;;;;;;27.94;35.65;99926.66;5092159;28;20499;-45
2023/08/09 05:13:57;;;;;;;3.65;2.42;;;;;;;28.06;34.79;99929.56;5092291;28;20451;-43
2023/08/09 05:16:24;;;;;;;3.30;2.28;;;;;;;27.98;35.43;99924.88;5092151;28;20036;-45
2023/08/09 05:18:51;;;;;;;2.70;2.20;;;;;;;28.24;34.70;99933.19;5091978;28;20051;-44
2023/08/09 05:21:16;;;;;;;4.03;2.40;;;;;;;28.50;34.22;99940.66;5091699;28;20027;-44
2023/08/09 05:23:42;;;;;;;3.92;2.08;;;;;;;28.78;33.67;99946.69;5090424;28;20037;-46
2023/08/09 05:26:07;;;;;;;3.53;2.33;;;;;;;29.11;33.45;99948.94;5090985;28;20027;-48
2023/08/09 05:28:33;;;;;;;3.90;2.20;;;;;;;29.51;32.73;99955.06;5090454;28;20130;-49
2023/08/09 05:30:58;;;;;;;5.70;4.35;;;;;;;29.87;31.93;99961.28;5086282;28;20043;-44
2023/08/09 05:33:24;;;;;;;3.50;2.15;;;;;;;29.40;32.33;99954.59;5071360;28;20031;-44
2023/08/09 05:35:49;;;;;;;2.13;1.80;;;;;;;27.59;34.96;99957.31;5070993;28;20032;-44
2023/08/09 05:38:15;;;;;;;2.35;1.90;;;;;;;26.82;36.42;99959.06;5087372;28;20052;-44
2023/08/09 05:40:40;;;;;;;2.53;2.10;;;;;;;27.05;36.43;99961.84;5091393;28;20028;-45
2023/08/09 05:43:05;;;;;;;3.17;2.00;;;;;;;27.03;36.60;99961.34;5089988;28;20024;-48
2023/08/09 05:45:31;;;;;;;2.60;1.90;;;;;;;27.38;36.05;99950.72;5089096;28;20588;-43
2023/08/09 05:47:56;;;;;;;3.22;2.10;;;;;;;27.35;35.99;99946.69;5089751;28;20020;-45
2023/08/09 05:50:22;;;;;;;2.75;2.10;;;;;;;27.73;35.32;99951.75;5090498;28;20097;-48
2023/08/09 05:52:47;;;;;;;2.53;1.90;;;;;;;27.83;34.95;99948.75;5090243;28;20043;-47
2023/08/09 05:55:13;;;;;;;2.85;2.00;;;;;;;27.79;35.10;99946.97;5091102;28;20098;-44
2023/08/09 05:57:38;;;;;;;2.42;2.00;;;;;;;28.10;34.91;99946.16;5090932;28;20028;-47
2023/08/09 06:00:06;;;;;;;2.97;2.22;;;;;;;28.34;34.55;99951.25;5090404;28;20407;-42
2023/08/09 06:02:34;;;;;;;3.17;1.92;;;;;;;28.56;34.37;99944.88;5090566;28;20543;-46
2023/08/09 06:05:00;;;;;;;4.20;2.10;;;;;;;28.77;33.77;99945.88;5090854;28;20034;-44
2023/08/09 06:07:27;;;;;;;3.45;2.10;;;;;;;28.99;33.13;99941.38;5090062;28;20032;-44
2023/08/09 06:09:53;;;;;;;1.95;1.80;;;;;;;29.21;33.09;99949.47;5090863;28;20422;-44
2023/08/09 06:12:18;;;;;;;8.02;2.25;;;;;;;29.32;32.80;99954.59;5090614;28;20031;-44
2023/08/09 06:14:44;;;;;;;4.25;2.20;;;;;;;29.52;32.42;99945.72;5090762;28;20024;-42
2023/08/09 06:17:09;;;;;;;2.40;2.05;;;;;;;29.87;32.01;99953.84;5090911;28;20051;-43
2023/08/09 06:19:34;;;;;;;2.20;1.83;;;;;;;29.93;31.89;99955.31;5090544;28;20024;-44
2023/08/09 06:22:00;;;;;;;3.97;2.25;;;;;;;30.24;32.04;99958.91;5090419;28;20476;-46
2023/08/09 06:24:25;;;;;;;2.25;1.92;;;;;;;30.51;31.31;99957.66;5090514;28;20047;-44
2023/08/09 06:26:51;;;;;;;2.85;2.42;;;;;;;30.64;30.53;99964.03;5090009;28;20061;-46
2023/08/09 06:29:18;;;;;;;2.97;2.20;;;;;;;30.28;31.11;99955.16;5090301;28;20024;-46
2023/08/09 06:31:43;;;;;;;3.45;2.78;;;;;;;30.42;30.66;99954.13;5090940;28;20026;-46
2023/08/09 06:34:08;;;;;;;2.25;1.90;;;;;;;30.54;30.52;99940.47;5090399;28;20407;-42
2023/08/09 06:36:34;;;;;;;2.67;1.85;;;;;;;30.57;30.74;99948.88;5090343;28;20110;-46
2023/08/09 06:38:59;;;;;;;1.92;1.73;;;;;;;30.71;30.59;99943.13;5050666;28;20111;-48
2023/08/09 06:41:25;;;;;;;2.78;1.88;;;;;;;30.66;30.25;99943.31;5050017;28;20342;-43
2023/08/09 06:43:50;;;;;;;2.17;1.80;;;;;;;30.80;30.49;99943.06;5049768;28;20036;-43
2023/08/09 06:46:16;;;;;;;3.13;1.85;;;;;;;30.55;30.04;99940.16;5049914;28;20039;-43
2023/08/09 06:48:41;;;;;;;2.20;1.77;;;;;;;30.57;30.10;99935.13;5049748;28;20017;-43
2023/08/09 06:51:07;;;;;;;2.22;1.90;;;;;;;30.51;30.45;99936.47;5049824;28;20084;-44
2023/08/09 06:53:33;;;;;;;1.70;1.60;;;;;;;30.68;30.16;99926.53;5049729;28;20028;-46
2023/08/09 06:55:58;;;;;;;1.92;1.73;;;;;;;30.75;29.50;99932.28;5049986;28;20016;-44
2023/08/09 06:58:24;;;;;;;2.10;1.85;;;;;;;30.86;29.60;99927.19;5049842;28;20028;-43
2023/08/09 07:00:49;;;;;;;1.90;1.80;;;;;;;30.90;29.70;99931.72;5048381;28;20457;-43
2023/08/09 07:03:15;;;;;;;2.28;1.50;;;;;;;31.06;29.44;99922.84;5049907;28;20112;-46
2023/08/09 07:05:41;;;;;;;2.95;2.13;;;;;;;31.21;28.64;99922.22;5049731;28;20024;-45
2023/08/09 07:08:07;;;;;;;2.53;2.20;;;;;;;31.39;28.61;99931.09;5049518;28;20454;-45
2023/08/09 07:10:33;;;;;;;4.30;2.17;;;;;;;31.14;28.83;99920.00;5050005;28;20109;-43
2023/08/09 07:12:58;;;;;;;2.28;2.08;;;;;;;31.27;28.56;99920.88;5049824;28;20098;-42
2023/08/09 07:15:24;;;;;;;2.63;2.20;;;;;;;31.34;28.23;99917.59;5049849;28;20032;-43
2023/08/09 07:17:50;;;;;;;2.25;1.90;;;;;;;31.02;28.83;99913.69;5049700;28;20036;-45
2023/08/09 07:20:16;;;;;;;1.95;1.75;;;;;;;31.26;28.96;99921.19;5052883;28;20024;-43
2023/08/09 07:22:44;;;;;;;3.40;2.00;;;;;;;31.13;29.43;99915.69;5053711;28;20017;-45
2023/08/09 07:25:10;;;;;;;4.93;1.83;;;;;;;31.01;29.34;99914.81;5053358;28;20031;-45
2023/08/09 07:27:46;;;;;;;2.72;2.20;;;;;;;31.43;28.83;99910.03;5053498;28;20037;-48
2023/08/09 07:30:14;;;;;;;3.25;2.05;;;;;;;31.40;28.60;99923.63;5053416;28;20037;-45
2023/08/09 07:32:40;;;;;;;2.65;2.03;;;;;;;31.53;28.51;99906.88;5053578;28;20104;-44
2023/08/09 07:35:07;;;;;;;2.20;2.00;;;;;;;31.19;28.64;99913.53;5053458;28;20420;-45
2023/08/09 07:37:33;;;;;;;2.78;2.10;;;;;;;31.15;28.84;99907.91;5069496;28;20449;-43
2023/08/09 07:39:59;;;;;;;2.45;2.15;;;;;;;30.99;28.74;99909.66;5093460;28;20016;-44
2023/08/09 07:42:24;;;;;;;2.78;2.13;;;;;;;30.44;29.10;99902.47;5093551;28;20028;-45
2023/08/09 07:44:50;;;;;;;2.00;1.90;;;;;;;30.40;29.61;99905.84;5093548;28;20039;-46
2023/08/09 07:47:16;;;;;;;2.50;1.75;;;;;;;30.57;29.82;99913.16;5093670;28;20480;-46
2023/08/09 07:49:42;;;;;;;2.10;1.85;;;;;;;30.33;29.75;99908.34;5093146;28;20039;-45
2023/08/09 07:52:07;;;;;;;2.90;2.00;;;;;;;30.58;29.34;99903.00;5093401;28;20495;-43
2023/08/09 07:54:32;;;;;;;2.72;1.90;;;;;;;30.93;28.22;99897.25;5093173;28;20130;-43
2023/08/09 07:56:58;;;;;;;4.05;1.80;;;;;;;31.19;28.23;99894.28;5093276;28;20412;-43
2023/08/09 07:59:23;;;;;;;2.20;1.70;;;;;;;31.50;28.00;99893.03;5093042;28;20024;-43
2023/08/09 08:01:49;;;;;;;2.65;1.90;;;;;;;31.23;27.84;99889.72;5093223;28;20035;-46
2023/08/09 08:04:14;;;;;;;2.90;1.90;;;;;;;31.14;27.89;99892.53;5092856;28;20068;-45
2023/08/09 08:06:40;;;;;;;2.75;1.88;;;;;;;31.17;28.04;99880.88;5092955;28;20024;-44
2023/08/09 08:09:05;;;;;;;1.95;1.77;;;;;;;31.61;27.98;99882.38;5092998;28;20031;-45
2023/08/09 08:11:31;;;;;;;3.03;2.03;;;;;;;31.56;27.88;99870.44;5093696;28;20057;-44
2023/08/09 08:13:57;;;;;;;2.65;1.75;;;;;;;31.46;27.97;99864.56;5093241;28;20476;-45
2023/08/09 08:16:23;;;;;;;6.43;2.00;;;;;;;31.49;27.60;99867.47;5093188;28;20036;-43
2023/08/09 08:18:48;;;;;;;2.75;1.60;;;;;;;31.06;27.69;99867.91;5093165;28;20039;-44
2023/08/09 08:21:14;;;;;;;2.30;1.70;;;;;;;30.50;28.81;99887.38;5092888;28;20054;-44
2023/08/09 08:23:39;;;;;;;3.60;1.70;;;;;;;29.80;30.24;99874.84;5092292;28;20024;-43
2023/08/09 08:26:05;;;;;;;1.75;1.50;;;;;;;30.37;28.92;99864.56;5092312;28;20121;-46
2023/08/09 08:28:30;;;;;;;1.77;1.50;;;;;;;30.74;28.76;99864.75;5092680;28;20101;-45
2023/08/09 08:30:56;;;;;;;2.17;1.30;;;;;;;30.83;28.44;99857.25;5091587;28;20027;-44
2023/08/09 08:33:21;;;;;;;1.60;1.30;;;;;;;30.56;28.50;99853.13;5092761;28;20415;-45
2023/08/09 08:35:49;;;;;;;1.80;1.42;;;;;;;30.00;29.33;99856.03;5092674;28;20333;-47
2023/08/09 08:38:16;;;;;;;1.38;1.20;;;;;;;30.01;29.64;99861.19;5092282;28;20432;-42
2023/08/09 08:40:42;;;;;;;4.93;1.50;;;;;;;30.30;28.89;99862.31;5092846;28;20114;-42
2023/08/09 08:43:09;;;;;;;1.80;1.10;;;;;;;29.67;29.97;99856.66;5092832;28;20059;-44
2023/08/09 08:45:38;;;;;;;1.35;1.20;;;;;;;29.44;30.47;99850.63;5092513;28;20524;-46
2023/08/09 08:48:07;;;;;;;1.60;1.15;;;;;;;29.22;30.87;99857.09;5092598;28;20028;-46
2023/08/09 08:50:35;;;;;;;1.80;1.23;;;;;;;29.54;30.62;99846.72;5092529;28;20032;-44
2023/08/09 08:53:01;;;;;;;1.50;1.38;;;;;;;29.54;30.52;99849.44;5092352;28;20043;-45
2023/08/09 08:55:26;;;;;;;1.77;1.23;;;;;;;29.16;30.63;99841.97;5092113;28;20024;-43
2023/08/09 08:57:53;;;;;;;1.35;1.10;;;;;;;28.81;31.43;99831.84;5092193;28;20085;-43
2023/08/09 09:00:20;;;;;;;1.77;1.20;;;;;;;29.03;31.49;99836.34;5091931;28;20118;-43
2023/08/09 09:02:46;;;;;;;1.52;1.20;;;;;;;29.47;30.69;99830.75;5092240;28;20195;-43
2023/08/09 09:05:13;;;;;;;2.70;1.25;;;;;;;29.57;30.69;99827.66;5091840;28;20024;-43
2023/08/09 09:07:39;;;;;;;3.17;1.05;;;;;;;29.33;30.91;99830.97;5092205;28;20028;-45
2023/08/09 09:10:06;;;;;;;1.30;1.20;;;;;;;28.85;30.84;99824.59;5091607;28;20103;-44
2023/08/09 09:12:36;;;;;;;1.48;1.05;;;;;;;29.58;30.04;99822.97;5091597;28;20106;-43
2023/08/09 09:15:04;;;;;;;1.63;1.20;;;;;;;29.76;30.25;99815.53;5091465;28;20020;-44
2023/08/09 09:17:31;;;;;;;2.55;1.30;;;;;;;30.09;29.91;99801.13;5091531;28;20024;-44
2023/08/09 09:19:56;;;;;;;1.38;1.27;;;;;;;30.42;29.36;99805.91;5091575;28;20099;-44
2023/08/09 09:22:26;;;;;;;1.58;1.30;;;;;;;29.70;29.82;99805.81;5091454;28;20130;-43
2023/08/09 09:24:52;;;;;;;1.65;1.23;;;;;;;29.86;29.87;99806.91;5091216;28;20036;-43
2023/08/09 09:27:25;;;;;;;3.60;1.40;;;;;;;30.68;28.95;99795.50;5091640;28;20133;-45
2023/08/09 09:29:50;;;;;;;2.08;1.20;;;;;;;30.06;30.40;99793.56;5091826;28;20441;-45
2023/08/09 09:32:16;;;;;;;1.98;1.40;;;;;;;30.88;28.85;99777.41;5091923;28;20031;-45
2023/08/09 09:34:41;;;;;;;1.58;1.48;;;;;;;31.59;28.06;99785.66;5091253;28;20107;-44
2023/08/09 09:37:07;;;;;;;1.52;1.40;;;;;;;30.70;28.21;99779.50;5091455;28;20572;-45
2023/08/09 09:39:32;;;;;;;3.97;1.40;;;;;;;31.11;28.53;99777.81;5091651;28;20012;-43
2023/08/09 09:41:58;;;;;;;1.83;1.60;;;;;;;30.43;28.91;99796.56;5091043;28;20081;-44
2023/08/09 09:44:23;;;;;;;1.38;1.25;;;;;;;30.87;28.95;99791.47;5091102;28;20110;-44
2023/08/09 09:46:58;;;;;;;2.20;1.15;;;;;;;31.17;28.39;99784.69;5091238;28;20057;-45
2023/08/09 09:49:24;;;;;;;1.30;1.20;;;;;;;31.42;27.86;99784.72;5091043;28;20032;-44
2023/08/09 09:51:51;;;;;;;2.38;1.30;;;;;;;31.29;27.94;99777.59;5091038;28;20040;-43
2023/08/09 09:54:17;;;;;;;1.75;1.50;;;;;;;32.33;26.81;99767.91;5091172;28;20027;-44
2023/08/09 09:56:42;;;;;;;1.40;1.30;;;;;;;31.66;27.01;99769.38;5090766;28;20406;-45
2023/08/09 09:59:07;;;;;;;1.52;1.42;;;;;;;31.83;26.69;99766.38;5090690;28;20051;-45
2023/08/09 10:01:39;;;;;;;1.80;1.40;;;;;;;31.32;27.67;99757.66;5091007;28;20418;-44
2023/08/09 10:04:06;;;;;;;2.67;1.50;;;;;;;31.16;28.25;99765.78;5091166;28;20028;-44
2023/08/09 10:06:39;;;;;;;1.67;1.25;;;;;;;30.66;28.73;99759.34;5091335;28;20024;-43
2023/08/09 10:09:08;;;;;;;1.30;1.17;;;;;;;31.66;27.44;99759.22;5090913;28;20052;-41
2023/08/09 10:11:37;;;;;;;2.00;1.23;;;;;;;30.76;27.49;99758.91;5090336;28;20016;-44
2023/08/09 10:14:05;;;;;;;1.83;1.35;;;;;;;30.82;28.37;99747.72;5090650;28;20035;-42
2023/08/09 10:16:32;;;;;;;1.67;1.20;;;;;;;29.79;28.94;99751.78;5090443;28;20125;-45
2023/08/09 10:19:03;;;;;;;1.63;1.20;;;;;;;29.67;29.40;99757.94;5090589;28;20095;-46
2023/08/09 10:21:29;;;;;;;1.95;1.40;;;;;;;30.92;27.46;99739.88;5090857;28;20059;-44
2023/08/09 10:24:10;;;;;;;1.70;1.40;;;;;;;31.70;27.04;99745.53;5090980;28;20043;-44
2023/08/09 10:26:37;;;;;;;1.50;1.27;;;;;;;31.40;27.11;99740.28;5090308;28;20020;-44
2023/08/09 10:29:06;;;;;;;1.60;1.42;;;;;;;31.30;27.87;99744.28;5090659;28;20024;-44
2023/08/09 10:32:04;;;;;;;3.70;1.40;;;;;;;30.78;27.47;99728.38;5090937;28;20099;-43
2023/08/09 10:34:36;;;;;;;1.42;1.33;;;;;;;30.01;29.13;99742.44;5089768;28;20036;-44
2023/08/09 10:37:04;;;;;;;1.90;1.27;;;;;;;30.11;27.77;99731.06;5090487;28;20062;-45
2023/08/09 10:39:30;;;;;;;1.52;1.40;;;;;;;30.60;27.08;99714.81;5090977;28;20022;-41
2023/08/09 10:41:57;;;;;;;1.50;1.38;;;;;;;30.35;27.26;99718.63;5090446;28;20155;-45
2023/08/09 10:44:49;;;;;;;2.35;1.30;;;;;;;31.25;26.51;99721.72;5090402;28;20067;-47
2023/08/09 10:47:26;;;;;;;1.38;1.27;;;;;;;30.71;27.25;99720.69;5079291;28;20108;-44
2023/08/09 10:49:52;;;;;;;2.78;1.60;;;;;;;30.53;27.86;99713.78;5090222;28;20443;-44
2023/08/09 10:52:20;;;;;;;1.38;1.27;;;;;;;30.69;26.83;99705.69;5090434;28;20109;-45
2023/08/09 10:54:49;;;;;;;2.08;1.88;;;;;;;30.51;26.63;99707.81;5089722;28;20052;-46
2023/08/09 10:57:16;;;;;;;1.55;1.20;;;;;;;30.70;27.37;99710.84;5090282;28;20024;-45
2023/08/09 10:59:43;;;;;;;1.25;1.15;;;;;;;30.91;26.30;99699.81;5090629;28;20028;-44
2023/08/09 11:02:09;;;;;;;1.27;1.17;;;;;;;31.45;25.81;99704.28;5089878;28;20028;-43
2023/08/09 11:04:36;;;;;;;1.35;1.20;;;;;;;30.90;26.74;99692.72;5090545;28;20052;-46
2023/08/09 11:07:02;;;;;;;1.10;1.00;;;;;;;31.01;26.38;99693.06;5090725;28;20035;-46
2023/08/09 11:09:29;;;;;;;2.70;1.10;;;;;;;31.21;26.40;99690.59;5090368;28;20028;-46
2023/08/09 11:11:55;;;;;;;1.40;1.17;;;;;;;31.43;25.85;99684.59;5089990;28;20073;-44
2023/08/09 11:14:22;;;;;;;0.98;0.90;;;;;;;30.94;25.79;99695.59;5089595;28;20020;-46
2023/08/09 11:16:49;;;;;;;1.20;1.10;;;;;;;30.43;26.10;99681.28;5089813;28;20504;-44
2023/08/09 11:19:18;;;;;;;1.30;1.08;;;;;;;30.54;25.83;99675.00;5090203;28;20016;-44
2023/08/09 11:21:44;;;;;;;2.08;1.20;;;;;;;30.55;25.95;99673.84;5090254;28;20019;-43
2023/08/09 11:24:11;;;;;;;1.20;1.00;;;;;;;31.05;25.49;99671.22;5090067;28;20024;-44
2023/08/09 11:26:44;;;;;;;1.08;0.90;;;;;;;31.32;25.08;99659.53;5090012;28;20509;-43
2023/08/09 11:29:10;;;;;;;1.23;1.13;;;;;;;31.15;25.07;99657.81;5090293;28;20108;-44
2023/08/09 11:31:40;;;;;;;1.08;0.98;;;;;;;31.76;24.84;99659.72;5089927;28;20058;-44